sensor_id;sensor_type;location;lat;lon;timestamp;pressure;altitude;pressure_sealevel;temperature;humidity
10720;BME280;5411;58.386;15.560;2023-01-26T00:00:21;100605.84;;;5.13;100.00
10720;BME280;5411;58.386;15.560;2023-01-26T00:02:49;100598.03;;;5.12;100.00
10720;BME280;5411;58.386;15.560;2023-01-26T00:05:18;100599.38;;;5.16;100.00
10720;BME280;5411;58.386;15.560;2023-01-26T00:07:46;100599.53;;;5.14;100.00
10720;BME280;5411;58.386;15.560;2023-01-26T00:10:15;100597.06;;;5.13;100.00
10720;BME280;5411;58.386;15.560;2023-01-26T00:12:43;100592.75;;;5.12;100.00
10720;BME280;5411;58.386;15.560;2023-01-26T00:15:13;100586.44;;;5.13;100.00
10720;BME280;5411;58.386;15.560;2023-01-26T00:17:44;100586.44;;;5.13;100.00
10720;BME280;5411;58.386;15.560;2023-01-26T00:20:13;100579.47;;;5.12;100.00
10720;BME280;5411;58.386;15.560;2023-01-26T00:22:41;100574.19;;;5.12;100.00
10720;BME280;5411;58.386;15.560;2023-01-26T00:25:10;100575.84;;;5.13;100.00
10720;BME280;5411;58.386;15.560;2023-01-26T00:27:38;100565.06;;;5.14;100.00
10720;BME280;5411;58.386;15.560;2023-01-26T00:30:08;100561.28;;;5.17;100.00
10720;BME280;5411;58.386;15.560;2023-01-26T00:32:38;100565.59;;;5.18;100.00
10720;BME280;5411;58.386;15.560;2023-01-26T00:35:08;100566.22;;;5.20;100.00
10720;BME280;5411;58.386;15.560;2023-01-26T00:37:39;100569.91;;;5.19;100.00
10720;BME280;5411;58.386;15.560;2023-01-26T00:40:11;100576.69;;;5.21;100.00
10720;BME280;5411;58.386;15.560;2023-01-26T00:42:39;100578.50;;;5.21;100.00
10720;BME280;5411;58.386;15.560;2023-01-26T00:45:08;100580.16;;;5.22;100.00
10720;BME280;5411;58.386;15.560;2023-01-26T00:47:38;100592.28;;;5.24;100.00
10720;BME280;5411;58.386;15.560;2023-01-26T00:50:08;100586.97;;;5.24;100.00
10720;BME280;5411;58.386;15.560;2023-01-26T00:52:37;100585.81;;;5.27;100.00
10720;BME280;5411;58.386;15.560;2023-01-26T00:55:06;100585.50;;;5.30;100.00
10720;BME280;5411;58.386;15.560;2023-01-26T00:57:36;100591.47;;;5.32;100.00
10720;BME280;5411;58.386;15.560;2023-01-26T01:00:11;100591.47;;;5.32;100.00
10720;BME280;5411;58.386;15.560;2023-01-26T01:02:44;100591.47;;;5.32;100.00
10720;BME280;5411;58.386;15.560;2023-01-26T01:05:12;100602.72;;;5.34;100.00
10720;BME280;5411;58.386;15.560;2023-01-26T01:07:40;100596.44;;;5.35;100.00
10720;BME280;5411;58.386;15.560;2023-01-26T01:10:10;100584.81;;;5.36;100.00
10720;BME280;5411;58.386;15.560;2023-01-26T01:12:38;100585.16;;;5.33;100.00
10720;BME280;5411;58.386;15.560;2023-01-26T01:15:07;100590.81;;;5.30;100.00
10720;BME280;5411;58.386;15.560;2023-01-26T01:17:36;100586.34;;;5.30;100.00
10720;BME280;5411;58.386;15.560;2023-01-26T01:20:09;100590.44;;;5.33;100.00
10720;BME280;5411;58.386;15.560;2023-01-26T01:22:38;100583.50;;;5.32;100.00
10720;BME280;5411;58.386;15.560;2023-01-26T01:25:07;100589.47;;;5.34;100.00
10720;BME280;5411;58.386;15.560;2023-01-26T01:27:36;100589.16;;;5.37;100.00
10720;BME280;5411;58.386;15.560;2023-01-26T01:30:05;100588.16;;;5.38;100.00
10720;BME280;5411;58.386;15.560;2023-01-26T01:32:35;100593.47;;;5.38;100.00
10720;BME280;5411;58.386;15.560;2023-01-26T01:35:08;100589.16;;;5.37;100.00
10720;BME280;5411;58.386;15.560;2023-01-26T01:37:36;100587.81;;;5.33;100.00
10720;BME280;5411;58.386;15.560;2023-01-26T01:40:08;100583.69;;;5.30;100.00
10720;BME280;5411;58.386;15.560;2023-01-26T01:42:45;100584.66;;;5.29;100.00
10720;BME280;5411;58.386;15.560;2023-01-26T01:45:40;100576.38;;;5.32;100.00
10720;BME280;5411;58.386;15.560;2023-01-26T01:48:17;100577.53;;;5.30;100.00
10720;BME280;5411;58.386;15.560;2023-01-26T01:50:49;100577.53;;;5.30;100.00
10720;BME280;5411;58.386;15.560;2023-01-26T01:53:30;100575.72;;;5.30;100.00
10720;BME280;5411;58.386;15.560;2023-01-26T01:56:03;100567.41;;;5.33;100.00
10720;BME280;5411;58.386;15.560;2023-01-26T01:58:36;100571.56;;;5.36;100.00
10720;BME280;5411;58.386;15.560;2023-01-26T02:01:05;100577.84;;;5.35;100.00
10720;BME280;5411;58.386;15.560;2023-01-26T02:03:36;100572.41;;;5.36;100.00
10720;BME280;5411;58.386;15.560;2023-01-26T02:06:10;100573.22;;;5.37;100.00
10720;BME280;5411;58.386;15.560;2023-01-26T02:08:45;100574.88;;;5.38;100.00
10720;BME280;5411;58.386;15.560;2023-01-26T02:11:16;100565.94;;;5.39;100.00
10720;BME280;5411;58.386;15.560;2023-01-26T02:13:48;100558.50;;;5.43;100.00
10720;BME280;5411;58.386;15.560;2023-01-26T02:16:17;100561.81;;;5.45;100.00
10720;BME280;5411;58.386;15.560;2023-01-26T02:18:46;100557.97;;;5.47;100.00
10720;BME280;5411;58.386;15.560;2023-01-26T02:21:20;100562.13;;;5.50;100.00
10720;BME280;5411;58.386;15.560;2023-01-26T02:23:57;100560.13;;;5.52;100.00
10720;BME280;5411;58.386;15.560;2023-01-26T02:26:31;100565.97;;;5.55;100.00
10720;BME280;5411;58.386;15.560;2023-01-26T02:29:01;100565.63;;;5.58;100.00
10720;BME280;5411;58.386;15.560;2023-01-26T02:31:31;100561.97;;;5.59;100.00
10720;BME280;5411;58.386;15.560;2023-01-26T02:34:05;100556.31;;;5.62;100.00
10720;BME280;5411;58.386;15.560;2023-01-26T02:36:34;100549.88;;;5.65;100.00
10720;BME280;5411;58.386;15.560;2023-01-26T02:39:21;100555.84;;;5.67;100.00
10720;BME280;5411;58.386;15.560;2023-01-26T02:41:53;100556.34;;;5.70;100.00
10720;BME280;5411;58.386;15.560;2023-01-26T02:44:41;100557.16;;;5.71;100.00
10720;BME280;5411;58.386;15.560;2023-01-26T02:47:14;100560.66;;;5.71;100.00
10720;BME280;5411;58.386;15.560;2023-01-26T02:49:44;100564.31;;;5.70;100.00
10720;BME280;5411;58.386;15.560;2023-01-26T02:52:18;100569.63;;;5.70;100.00
10720;BME280;5411;58.386;15.560;2023-01-26T02:54:46;100566.28;;;5.68;100.00
10720;BME280;5411;58.386;15.560;2023-01-26T02:57:35;100570.59;;;5.69;100.00
10720;BME280;5411;58.386;15.560;2023-01-26T03:00:06;100566.28;;;5.68;100.00
10720;BME280;5411;58.386;15.560;2023-01-26T03:02:35;100567.94;;;5.69;100.00
10720;BME280;5411;58.386;15.560;2023-01-26T03:05:04;100570.78;;;5.68;100.00
10720;BME280;5411;58.386;15.560;2023-01-26T03:07:32;100569.63;;;5.70;100.00
10720;BME280;5411;58.386;15.560;2023-01-26T03:10:03;100574.09;;;5.70;100.00
10720;BME280;5411;58.386;15.560;2023-01-26T03:12:31;100581.88;;;5.71;100.00
10720;BME280;5411;58.386;15.560;2023-01-26T03:15:01;100574.91;;;5.70;100.00
10720;BME280;5411;58.386;15.560;2023-01-26T03:17:47;100582.88;;;5.70;100.00
10720;BME280;5411;58.386;15.560;2023-01-26T03:20:18;100584.72;;;5.70;100.00
10720;BME280;5411;58.386;15.560;2023-01-26T03:23:07;100584.72;;;5.70;100.00
10720;BME280;5411;58.386;15.560;2023-01-26T03:25:53;100577.41;;;5.72;100.00
10720;BME280;5411;58.386;15.560;2023-01-26T03:28:38;100575.59;;;5.72;100.00
10720;BME280;5411;58.386;15.560;2023-01-26T03:31:08;100578.88;;;5.74;100.00
10720;BME280;5411;58.386;15.560;2023-01-26T03:33:37;100577.41;;;5.72;100.00
10720;BME280;5411;58.386;15.560;2023-01-26T03:36:14;100579.03;;;5.73;100.00
10720;BME280;5411;58.386;15.560;2023-01-26T03:38:43;100581.06;;;5.71;100.00
10720;BME280;5411;58.386;15.560;2023-01-26T03:41:13;100581.69;;;5.73;100.00
10720;BME280;5411;58.386;15.560;2023-01-26T03:43:59;100582.72;;;5.72;100.00
10720;BME280;5411;58.386;15.560;2023-01-26T03:46:47;100588.19;;;5.70;100.00
10720;BME280;5411;58.386;15.560;2023-01-26T03:49:32;100595.50;;;5.68;100.00
10720;BME280;5411;58.386;15.560;2023-01-26T03:52:20;100591.50;;;5.64;100.00
10720;BME280;5411;58.386;15.560;2023-01-26T03:55:07;100586.19;;;5.64;100.00
10720;BME280;5411;58.386;15.560;2023-01-26T03:57:55;100584.03;;;5.68;100.00
10720;BME280;5411;58.386;15.560;2023-01-26T04:00:24;100586.53;;;5.69;100.00
10720;BME280;5411;58.386;15.560;2023-01-26T04:02:54;100583.72;;;5.71;100.00
10720;BME280;5411;58.386;15.560;2023-01-26T04:05:39;100587.19;;;5.71;100.00
10720;BME280;5411;58.386;15.560;2023-01-26T04:08:42;100583.72;;;5.71;100.00
10720;BME280;5411;58.386;15.560;2023-01-26T04:11:11;100595.16;;;5.71;100.00
10720;BME280;5411;58.386;15.560;2023-01-26T04:13:39;100591.84;;;5.69;100.00
10720;BME280;5411;58.386;15.560;2023-01-26T04:16:25;100600.78;;;5.68;100.00
10720;BME280;5411;58.386;15.560;2023-01-26T04:19:16;100594.66;;;5.68;100.00
10720;BME280;5411;58.386;15.560;2023-01-26T04:22:01;100591.81;;;5.61;100.00
10720;BME280;5411;58.386;15.560;2023-01-26T04:24:30;100590.50;;;5.57;100.00
10720;BME280;5411;58.386;15.560;2023-01-26T04:26:58;100590.00;;;5.54;100.00
10720;BME280;5411;58.386;15.560;2023-01-26T04:29:30;100592.16;;;5.50;100.00
10720;BME280;5411;58.386;15.560;2023-01-26T04:31:58;100586.16;;;5.48;100.00
10720;BME280;5411;58.386;15.560;2023-01-26T04:34:29;100589.81;;;5.47;100.00
10720;BME280;5411;58.386;15.560;2023-01-26T04:36:57;100594.28;;;5.47;100.00
10720;BME280;5411;58.386;15.560;2023-01-26T04:39:26;100591.00;;;5.45;100.00
10720;BME280;5411;58.386;15.560;2023-01-26T04:41:54;100597.28;;;5.44;100.00
10720;BME280;5411;58.386;15.560;2023-01-26T04:44:23;100600.09;;;5.42;100.00
10720;BME280;5411;58.386;15.560;2023-01-26T04:46:52;100599.28;;;5.42;100.00
10720;BME280;5411;58.386;15.560;2023-01-26T04:49:20;100598.44;;;5.41;100.00
10720;BME280;5411;58.386;15.560;2023-01-26T04:51:51;100606.41;;;5.41;100.00
10720;BME280;5411;58.386;15.560;2023-01-26T04:54:20;100610.72;;;5.42;100.00
10720;BME280;5411;58.386;15.560;2023-01-26T04:56:48;100613.53;;;5.41;100.00
10720;BME280;5411;58.386;15.560;2023-01-26T04:59:18;100600.75;;;5.36;100.00
10720;BME280;5411;58.386;15.560;2023-01-26T05:01:46;100603.25;;;5.37;100.00
10720;BME280;5411;58.386;15.560;2023-01-26T05:04:14;100601.41;;;5.38;100.00
10720;BME280;5411;58.386;15.560;2023-01-26T05:06:43;100603.41;;;5.36;100.00
10720;BME280;5411;58.386;15.560;2023-01-26T05:09:12;100607.03;;;5.35;100.00
10720;BME280;5411;58.386;15.560;2023-01-26T05:11:41;100610.53;;;5.35;100.00
10720;BME280;5411;58.386;15.560;2023-01-26T05:14:09;100611.34;;;5.36;100.00
10720;BME280;5411;58.386;15.560;2023-01-26T05:16:38;100615.00;;;5.35;100.00
10720;BME280;5411;58.386;15.560;2023-01-26T05:19:06;100615.00;;;5.35;100.00
10720;BME280;5411;58.386;15.560;2023-01-26T05:21:40;100612.69;;;5.32;100.00
10720;BME280;5411;58.386;15.560;2023-01-26T05:24:09;100623.31;;;5.32;100.00
10720;BME280;5411;58.386;15.560;2023-01-26T05:26:39;100622.78;;;5.28;100.00
10720;BME280;5411;58.386;15.560;2023-01-26T05:29:07;100632.72;;;5.26;100.00
10720;BME280;5411;58.386;15.560;2023-01-26T05:31:36;100636.53;;;5.24;100.00
10720;BME280;5411;58.386;15.560;2023-01-26T05:34:06;100645.63;;;5.21;100.00
10720;BME280;5411;58.386;15.560;2023-01-26T05:36:34;100638.50;;;5.22;100.00
10720;BME280;5411;58.386;15.560;2023-01-26T05:39:02;100638.66;;;5.20;100.00
10720;BME280;5411;58.386;15.560;2023-01-26T05:41:34;100643.13;;;5.20;100.00
10720;BME280;5411;58.386;15.560;2023-01-26T05:44:04;100645.00;;;5.19;100.00
10720;BME280;5411;58.386;15.560;2023-01-26T05:46:34;100643.31;;;5.18;100.00
10720;BME280;5411;58.386;15.560;2023-01-26T05:49:02;100649.47;;;5.19;100.00
10720;BME280;5411;58.386;15.560;2023-01-26T05:51:30;100655.75;;;5.18;100.00
10720;BME280;5411;58.386;15.560;2023-01-26T05:53:59;100661.22;;;5.16;100.00
10720;BME280;5411;58.386;15.560;2023-01-26T05:56:28;100661.22;;;5.16;100.00
10720;BME280;5411;58.386;15.560;2023-01-26T05:58:57;100666.38;;;5.18;100.00
10720;BME280;5411;58.386;15.560;2023-01-26T06:01:27;100665.38;;;5.19;100.00
10720;BME280;5411;58.386;15.560;2023-01-26T06:03:55;100667.84;;;5.20;100.00
10720;BME280;5411;58.386;15.560;2023-01-26T06:06:24;100674.16;;;5.19;100.00
10720;BME280;5411;58.386;15.560;2023-01-26T06:08:52;100674.81;;;5.21;100.00
10720;BME280;5411;58.386;15.560;2023-01-26T06:11:21;100694.34;;;5.20;100.00
10720;BME280;5411;58.386;15.560;2023-01-26T06:13:49;100688.22;;;5.20;100.00
10720;BME280;5411;58.386;15.560;2023-01-26T06:16:18;100690.72;;;5.21;100.00
10720;BME280;5411;58.386;15.560;2023-01-26T06:18:48;100689.06;;;5.20;100.00
10720;BME280;5411;58.386;15.560;2023-01-26T06:21:16;100701.16;;;5.23;100.00
10720;BME280;5411;58.386;15.560;2023-01-26T06:23:45;100706.00;;;5.27;100.00
10720;BME280;5411;58.386;15.560;2023-01-26T06:26:15;100716.63;;;5.27;100.00
10720;BME280;5411;58.386;15.560;2023-01-26T06:28:44;100718.28;;;5.28;100.00
10720;BME280;5411;58.386;15.560;2023-01-26T06:31:13;100715.63;;;5.28;100.00
10720;BME280;5411;58.386;15.560;2023-01-26T06:33:41;100724.94;;;5.32;100.00
10720;BME280;5411;58.386;15.560;2023-01-26T06:36:13;100726.75;;;5.32;100.00
10720;BME280;5411;58.386;15.560;2023-01-26T06:38:44;100727.41;;;5.34;100.00
10720;BME280;5411;58.386;15.560;2023-01-26T06:41:15;100722.09;;;5.34;100.00
10720;BME280;5411;58.386;15.560;2023-01-26T06:43:46;100718.31;;;5.36;100.00
10720;BME280;5411;58.386;15.560;2023-01-26T06:46:15;100727.09;;;5.37;100.00
10720;BME280;5411;58.386;15.560;2023-01-26T06:48:44;100726.78;;;5.40;100.00
10720;BME280;5411;58.386;15.560;2023-01-26T06:51:43;100734.09;;;5.46;100.00
10720;BME280;5411;58.386;15.560;2023-01-26T06:54:14;100732.25;;;5.47;100.00
10720;BME280;5411;58.386;15.560;2023-01-26T06:56:43;100742.72;;;5.48;100.00
10720;BME280;5411;58.386;15.560;2023-01-26T06:59:11;100740.75;;;5.50;100.00
10720;BME280;5411;58.386;15.560;2023-01-26T07:01:42;100745.88;;;5.52;100.00
10720;BME280;5411;58.386;15.560;2023-01-26T07:08:01;100766.00;;;5.62;100.00
10720;BME280;5411;58.386;15.560;2023-01-26T07:10:30;100763.84;;;5.66;100.00
10720;BME280;5411;58.386;15.560;2023-01-26T07:12:58;100772.34;;;5.69;100.00
10720;BME280;5411;58.386;15.560;2023-01-26T07:15:26;100780.97;;;5.71;100.00
10720;BME280;5411;58.386;15.560;2023-01-26T07:17:55;100777.31;;;5.72;100.00
10720;BME280;5411;58.386;15.560;2023-01-26T07:20:24;100781.31;;;5.77;100.00
10720;BME280;5411;58.386;15.560;2023-01-26T07:22:52;100788.78;;;5.81;100.00
10720;BME280;5411;58.386;15.560;2023-01-26T07:25:22;100793.13;;;5.82;100.00
10720;BME280;5411;58.386;15.560;2023-01-26T07:27:54;100793.28;;;5.81;100.00
10720;BME280;5411;58.386;15.560;2023-01-26T07:30:23;100799.72;;;5.78;100.00
10720;BME280;5411;58.386;15.560;2023-01-26T07:32:52;100800.72;;;5.77;100.00
10720;BME280;5411;58.386;15.560;2023-01-26T07:35:20;100797.75;;;5.80;100.00
10720;BME280;5411;58.386;15.560;2023-01-26T07:37:49;100806.53;;;5.81;100.00
10720;BME280;5411;58.386;15.560;2023-01-26T07:40:20;100808.69;;;5.77;100.00
10720;BME280;5411;58.386;15.560;2023-01-26T07:42:50;100810.50;;;5.77;100.00
10720;BME280;5411;58.386;15.560;2023-01-26T07:45:18;100806.34;;;5.74;100.00
10720;BME280;5411;58.386;15.560;2023-01-26T07:47:46;100822.13;;;5.76;100.00
10720;BME280;5411;58.386;15.560;2023-01-26T07:50:21;100820.44;;;5.74;100.00
10720;BME280;5411;58.386;15.560;2023-01-26T07:52:51;100818.97;;;5.72;100.00
10720;BME280;5411;58.386;15.560;2023-01-26T07:55:20;100821.09;;;5.68;100.00
10720;BME280;5411;58.386;15.560;2023-01-26T07:57:55;100823.75;;;5.68;100.00
10720;BME280;5411;58.386;15.560;2023-01-26T08:00:23;100822.09;;;5.67;100.00
10720;BME280;5411;58.386;15.560;2023-01-26T08:02:52;100832.03;;;5.65;100.00
10720;BME280;5411;58.386;15.560;2023-01-26T08:05:20;100832.19;;;5.64;100.00
10720;BME280;5411;58.386;15.560;2023-01-26T08:07:49;100831.50;;;5.62;100.00
10720;BME280;5411;58.386;15.560;2023-01-26T08:10:18;100836.97;;;5.60;100.00
10720;BME280;5411;58.386;15.560;2023-01-26T08:12:46;100836.34;;;5.58;100.00
10720;BME280;5411;58.386;15.560;2023-01-26T08:15:20;100845.28;;;5.57;100.00
10720;BME280;5411;58.386;15.560;2023-01-26T08:17:49;100850.06;;;5.54;100.00
10720;BME280;5411;58.386;15.560;2023-01-26T08:20:20;100851.34;;;5.50;100.00
10720;BME280;5411;58.386;15.560;2023-01-26T08:22:48;100861.13;;;5.49;100.00
10720;BME280;5411;58.386;15.560;2023-01-26T08:25:17;100868.94;;;5.51;100.00
10720;BME280;5411;58.386;15.560;2023-01-26T08:27:45;100876.75;;;5.52;100.00
10720;BME280;5411;58.386;15.560;2023-01-26T08:30:13;100881.75;;;5.55;100.00
10720;BME280;5411;58.386;15.560;2023-01-26T08:32:44;100891.72;;;5.61;100.00
10720;BME280;5411;58.386;15.560;2023-01-26T08:35:13;100888.44;;;5.67;100.00
10720;BME280;5411;58.386;15.560;2023-01-26T08:37:41;100889.97;;;5.70;100.00
10720;BME280;5411;58.386;15.560;2023-01-26T08:40:12;100889.13;;;5.69;100.00
10720;BME280;5411;58.386;15.560;2023-01-26T08:42:42;100901.72;;;5.67;100.00
10720;BME280;5411;58.386;15.560;2023-01-26T08:45:10;100907.19;;;5.66;100.00
10720;BME280;5411;58.386;15.560;2023-01-26T08:47:39;100909.47;;;5.61;100.00
10720;BME280;5411;58.386;15.560;2023-01-26T08:50:10;100911.13;;;5.62;100.00
10720;BME280;5411;58.386;15.560;2023-01-26T08:52:40;100922.09;;;5.59;100.00
10720;BME280;5411;58.386;15.560;2023-01-26T08:55:10;100918.41;;;5.60;100.00
10720;BME280;5411;58.386;15.560;2023-01-26T08:57:38;100921.06;;;5.60;100.00
10720;BME280;5411;58.386;15.560;2023-01-26T09:00:08;100924.41;;;5.62;100.00
10720;BME280;5411;58.386;15.560;2023-01-26T09:02:39;100926.91;;;5.63;100.00
10720;BME280;5411;58.386;15.560;2023-01-26T09:05:09;100933.88;;;5.64;100.00
10720;BME280;5411;58.386;15.560;2023-01-26T09:07:37;100934.56;;;5.66;100.00
10720;BME280;5411;58.386;15.560;2023-01-26T09:10:07;100936.59;;;5.72;100.00
10720;BME280;5411;58.386;15.560;2023-01-26T09:12:36;100930.97;;;5.76;100.00
10720;BME280;5411;58.386;15.560;2023-01-26T09:15:07;100938.84;;;5.85;100.00
10720;BME280;5411;58.386;15.560;2023-01-26T09:17:36;100942.38;;;5.94;100.00
10720;BME280;5411;58.386;15.560;2023-01-26T09:20:06;100948.72;;;6.01;100.00
10720;BME280;5411;58.386;15.560;2023-01-26T09:22:37;100957.50;;;6.01;100.00
10720;BME280;5411;58.386;15.560;2023-01-26T09:25:06;100951.88;;;5.96;100.00
10720;BME280;5411;58.386;15.560;2023-01-26T09:27:36;100965.59;;;5.92;100.00
10720;BME280;5411;58.386;15.560;2023-01-26T09:30:05;100966.88;;;5.88;100.00
10720;BME280;5411;58.386;15.560;2023-01-26T09:32:34;100962.06;;;5.83;100.00
10720;BME280;5411;58.386;15.560;2023-01-26T09:35:03;100961.22;;;5.83;100.00
10720;BME280;5411;58.386;15.560;2023-01-26T09:37:31;100960.00;;;5.77;100.00
10720;BME280;5411;58.386;15.560;2023-01-26T09:40:02;100967.13;;;5.77;100.00
10720;BME280;5411;58.386;15.560;2023-01-26T09:42:42;100977.06;;;5.74;100.00
10720;BME280;5411;58.386;15.560;2023-01-26T09:45:25;100982.88;;;5.70;100.00
10720;BME280;5411;58.386;15.560;2023-01-26T09:48:08;100991.53;;;5.72;100.00
10720;BME280;5411;58.386;15.560;2023-01-26T09:50:43;100984.06;;;5.76;100.00
10720;BME280;5411;58.386;15.560;2023-01-26T09:53:24;100985.41;;;5.80;100.00
10720;BME280;5411;58.386;15.560;2023-01-26T09:55:57;100996.56;;;5.83;100.00
10720;BME280;5411;58.386;15.560;2023-01-26T09:58:32;100996.88;;;5.80;100.00
10720;BME280;5411;58.386;15.560;2023-01-26T10:01:03;101005.66;;;5.81;100.00
10720;BME280;5411;58.386;15.560;2023-01-26T10:03:42;101009.84;;;5.83;100.00
10720;BME280;5411;58.386;15.560;2023-01-26T10:06:14;101009.00;;;5.83;100.00
10720;BME280;5411;58.386;15.560;2023-01-26T10:08:48;101008.16;;;5.82;100.00
10720;BME280;5411;58.386;15.560;2023-01-26T10:11:23;101016.81;;;5.84;100.00
10720;BME280;5411;58.386;15.560;2023-01-26T10:14:03;101014.47;;;5.81;100.00
10720;BME280;5411;58.386;15.560;2023-01-26T10:16:35;101024.03;;;5.74;100.00
10720;BME280;5411;58.386;15.560;2023-01-26T10:19:08;101032.81;;;5.74;100.00
10720;BME280;5411;58.386;15.560;2023-01-26T10:21:43;101031.50;;;5.70;100.00
10720;BME280;5411;58.386;15.560;2023-01-26T10:24:13;101045.25;;;5.74;100.00
10720;BME280;5411;58.386;15.560;2023-01-26T10:26:46;101029.88;;;5.78;100.00
10720;BME280;5411;58.386;15.560;2023-01-26T10:29:16;101044.63;;;5.72;100.00
10720;BME280;5411;58.386;15.560;2023-01-26T10:31:45;101043.78;;;5.71;100.00
10720;BME280;5411;58.386;15.560;2023-01-26T10:34:15;101051.56;;;5.73;100.00
10720;BME280;5411;58.386;15.560;2023-01-26T10:36:45;101059.22;;;5.76;100.00
10720;BME280;5411;58.386;15.560;2023-01-26T10:39:15;101065.06;;;5.80;100.00
10720;BME280;5411;58.386;15.560;2023-01-26T10:41:59;101069.00;;;5.76;100.00
10720;BME280;5411;58.386;15.560;2023-01-26T10:44:31;101081.94;;;5.70;100.00
10720;BME280;5411;58.386;15.560;2023-01-26T10:47:13;101078.34;;;5.62;100.00
10720;BME280;5411;58.386;15.560;2023-01-26T10:49:42;101085.97;;;5.57;100.00
10720;BME280;5411;58.386;15.560;2023-01-26T10:52:15;101086.09;;;5.55;100.00
10720;BME280;5411;58.386;15.560;2023-01-26T10:54:46;101101.50;;;5.52;100.00
10720;BME280;5411;58.386;15.560;2023-01-26T10:57:23;101096.81;;;5.46;100.00
10720;BME280;5411;58.386;15.560;2023-01-26T10:59:56;101093.75;;;5.41;100.00
10720;BME280;5411;58.386;15.560;2023-01-26T11:02:26;101098.38;;;5.38;100.00
10720;BME280;5411;58.386;15.560;2023-01-26T11:12:28;101087.00;;;5.28;100.00
10720;BME280;5411;58.386;15.560;2023-01-26T11:15:02;101096.09;;;5.26;100.00
10720;BME280;5411;58.386;15.560;2023-01-26T11:17:36;101089.28;;;5.23;100.00
10720;BME280;5411;58.386;15.560;2023-01-26T11:20:33;101105.88;;;5.25;100.00
10720;BME280;5411;58.386;15.560;2023-01-26T11:23:13;101106.56;;;5.27;100.00
10720;BME280;5411;58.386;15.560;2023-01-26T11:26:06;101094.13;;;5.28;100.00
10720;BME280;5411;58.386;15.560;2023-01-26T11:28:46;101113.00;;;5.25;100.00
10720;BME280;5411;58.386;15.560;2023-01-26T11:31:31;101121.84;;;5.16;100.00
10720;BME280;5411;58.386;15.560;2023-01-26T11:34:20;101113.94;;;5.06;100.00
10720;BME280;5411;58.386;15.560;2023-01-26T11:36:59;101122.09;;;4.95;100.00
10720;BME280;5411;58.386;15.560;2023-01-26T11:39:41;101122.72;;;4.89;100.00
10720;BME280;5411;58.386;15.560;2023-01-26T11:42:21;101131.09;;;4.84;100.00
10720;BME280;5411;58.386;15.560;2023-01-26T11:45:07;101128.56;;;4.83;100.00
10720;BME280;5411;58.386;15.560;2023-01-26T11:47:51;101120.19;;;4.87;100.00
10720;BME280;5411;58.386;15.560;2023-01-26T11:50:29;101127.41;;;4.95;100.00
10720;BME280;5411;58.386;15.560;2023-01-26T11:53:34;101134.22;;;4.97;100.00
10720;BME280;5411;58.386;15.560;2023-01-26T11:56:20;101127.81;;;5.00;100.00
10720;BME280;5411;58.386;15.560;2023-01-26T11:58:56;101135.00;;;5.08;100.00
10720;BME280;5411;58.386;15.560;2023-01-26T12:01:30;101148.13;;;5.09;100.00
10720;BME280;5411;58.386;15.560;2023-01-26T12:04:01;101152.00;;;5.15;100.00
10720;BME280;5411;58.386;15.560;2023-01-26T12:06:34;101151.72;;;5.18;100.00
10720;BME280;5411;58.386;15.560;2023-01-26T12:09:05;101162.34;;;5.18;100.00
10720;BME280;5411;58.386;15.560;2023-01-26T12:11:39;101163.75;;;5.12;99.23
10720;BME280;5411;58.386;15.560;2023-01-26T12:14:19;101173.28;;;5.05;99.43
10720;BME280;5411;58.386;15.560;2023-01-26T12:17:07;101178.19;;;5.00;98.81
10720;BME280;5411;58.386;15.560;2023-01-26T12:19:48;101164.78;;;5.01;98.44
10720;BME280;5411;58.386;15.560;2023-01-26T12:22:23;101176.22;;;5.02;97.77
10720;BME280;5411;58.386;15.560;2023-01-26T12:28:49;101179.09;;;5.09;98.03
10720;BME280;5411;58.386;15.560;2023-01-26T12:31:26;101178.97;;;5.10;96.32
10720;BME280;5411;58.386;15.560;2023-01-26T12:34:00;101189.44;;;5.12;96.13
10720;BME280;5411;58.386;15.560;2023-01-26T12:36:41;101189.00;;;5.16;96.73
10720;BME280;5411;58.386;15.560;2023-01-26T12:39:18;101186.78;;;5.12;94.17
10720;BME280;5411;58.386;15.560;2023-01-26T12:42:18;101194.44;;;5.15;93.81
10720;BME280;5411;58.386;15.560;2023-01-26T12:44:53;101202.56;;;5.13;92.67
10720;BME280;5411;58.386;15.560;2023-01-26T12:47:27;101197.53;;;5.10;92.21
10720;BME280;5411;58.386;15.560;2023-01-26T12:50:08;101203.13;;;5.07;92.63
10720;BME280;5411;58.386;15.560;2023-01-26T12:52:41;101198.97;;;5.05;91.16
10720;BME280;5411;58.386;15.560;2023-01-26T12:55:16;101211.13;;;4.97;91.22
10720;BME280;5411;58.386;15.560;2023-01-26T12:57:48;101209.44;;;4.96;91.48
10720;BME280;5411;58.386;15.560;2023-01-26T13:00:27;101212.69;;;4.90;91.41
10720;BME280;5411;58.386;15.560;2023-01-26T13:02:59;101218.44;;;4.86;90.78
10720;BME280;5411;58.386;15.560;2023-01-26T13:05:33;101221.81;;;4.78;90.70
10720;BME280;5411;58.386;15.560;2023-01-26T13:08:40;101231.13;;;4.82;91.06
10720;BME280;5411;58.386;15.560;2023-01-26T13:11:45;101228.47;;;4.82;91.78
10720;BME280;5411;58.386;15.560;2023-01-26T13:14:32;101228.63;;;4.81;89.76
10720;BME280;5411;58.386;15.560;2023-01-26T13:17:40;101236.31;;;4.74;89.57
10720;BME280;5411;58.386;15.560;2023-01-26T13:26:44;101250.13;;;4.68;88.45
10720;BME280;5411;58.386;15.560;2023-01-26T13:29:31;101263.00;;;4.63;88.84
10720;BME280;5411;58.386;15.560;2023-01-26T13:35:08;101264.38;;;4.57;88.01
10720;BME280;5411;58.386;15.560;2023-01-26T13:37:48;101267.44;;;4.53;87.87
10720;BME280;5411;58.386;15.560;2023-01-26T13:40:21;101278.34;;;4.50;88.80
10720;BME280;5411;58.386;15.560;2023-01-26T13:42:56;101271.50;;;4.47;87.51
10720;BME280;5411;58.386;15.560;2023-01-26T13:45:31;101277.94;;;4.45;87.36